createdAt,value
2018-12-11T00:00:14.442Z,85.39
2018-12-11T00:01:14.471Z,85.68
2018-12-11T00:02:14.476Z,84.77
2018-12-11T00:03:14.500Z,84.67
2018-12-11T00:04:14.512Z,85.01
2018-12-11T00:05:14.522Z,84.82
2018-12-11T00:06:14.536Z,84.86
2018-12-11T00:07:14.556Z,84.67
2018-12-11T00:08:14.564Z,84.48
2018-12-11T00:09:14.588Z,84.48
2018-12-11T00:10:14.607Z,84.29
2018-12-11T00:11:14.618Z,83.91
2018-12-11T00:12:14.624Z,83.62
2018-12-11T00:13:14.634Z,83.82
2018-12-11T00:14:14.664Z,84.10
2018-12-11T00:15:14.663Z,84.29
2018-12-11T00:17:14.696Z,84.10
2018-12-11T00:18:14.704Z,84.48
2018-12-11T00:19:14.730Z,84.63
2018-12-11T00:20:14.771Z,84.91
2018-12-11T00:21:14.751Z,84.82
2018-12-11T00:22:14.783Z,84.72
2018-12-11T00:23:14.786Z,84.72
2018-12-11T00:24:14.850Z,84.91
2018-12-11T00:25:14.812Z,84.39
2018-12-11T00:26:14.831Z,83.59
2018-12-11T00:27:14.832Z,83.82
2018-12-11T00:28:14.846Z,83.91
2018-12-11T00:29:14.871Z,83.25
2018-12-11T00:30:14.894Z,83.06
2018-12-11T00:31:14.898Z,82.58
2018-12-11T00:32:14.914Z,82.49
2018-12-11T00:33:14.920Z,82.77
2018-12-11T00:34:14.937Z,83.15
2018-12-11T00:36:14.967Z,82.68
2018-12-11T00:37:14.977Z,82.58
2018-12-11T00:38:14.991Z,83.06
2018-12-11T00:39:15.007Z,82.96
2018-12-11T00:40:15.020Z,82.29
2018-12-11T00:41:15.031Z,82.77
2018-12-11T00:42:15.050Z,82.10
2018-12-11T00:43:15.078Z,82.68
2018-12-11T00:44:15.080Z,82.77
2018-12-11T00:45:15.120Z,82.87
2018-12-11T00:46:15.106Z,82.92
2018-12-11T00:47:15.133Z,83.30
2018-12-11T00:48:15.132Z,83.30
2018-12-11T00:49:15.147Z,83.20
2018-12-11T00:50:15.168Z,82.68
2018-12-11T00:51:15.175Z,81.63
2018-12-11T00:52:15.225Z,82.10
2018-12-11T00:53:15.223Z,82.10
2018-12-11T00:54:15.233Z,82.77
2018-12-11T00:55:15.228Z,82.96
2018-12-11T00:56:15.247Z,83.30
2018-12-11T00:57:15.260Z,84.53
2018-12-11T00:58:15.281Z,83.78
2018-12-11T00:59:15.298Z,83.20
2018-12-11T01:00:15.311Z,83.78
2018-12-11T01:01:15.334Z,83.97
2018-12-11T01:02:15.350Z,83.72
2018-12-11T01:03:15.346Z,83.78
2018-12-11T01:04:15.359Z,83.11
2018-12-11T01:05:15.421Z,83.20
2018-12-11T01:06:15.404Z,83.39
2018-12-11T01:07:15.404Z,83.87
2018-12-11T01:09:15.427Z,84.34
2018-12-11T01:10:15.442Z,84.91
2018-12-11T01:11:15.472Z,84.91
2018-12-11T01:12:15.479Z,84.63
2018-12-11T01:13:15.487Z,84.34
2018-12-11T01:14:15.511Z,84.44
2018-12-11T01:16:15.529Z,83.68
2018-12-11T01:17:15.544Z,83.91
2018-12-11T01:18:15.590Z,84.34
2018-12-11T01:19:15.571Z,83.97
2018-12-11T01:20:15.662Z,83.82
2018-12-11T01:21:15.598Z,83.72
2018-12-11T01:23:15.627Z,83.44
2018-12-11T01:24:15.646Z,82.20
2018-12-11T01:25:15.663Z,81.92
2018-12-11T01:26:15.668Z,82.01
2018-12-11T01:27:15.690Z,82.49
2018-12-11T01:28:15.710Z,82.77
2018-12-11T01:29:15.712Z,83.44
2018-12-11T01:30:15.739Z,83.44
2018-12-11T01:31:15.738Z,83.62
2018-12-11T01:32:15.753Z,83.44
2018-12-11T01:33:15.785Z,83.06
2018-12-11T01:35:15.796Z,84.29
2018-12-11T01:36:15.806Z,84.72
2018-12-11T01:37:15.868Z,85.11
2018-12-11T01:38:15.844Z,85.30
2018-12-11T01:39:15.849Z,84.63
2018-12-11T01:40:15.864Z,84.39
2018-12-11T01:41:15.879Z,83.62
2018-12-11T01:42:15.911Z,84.01
2018-12-11T01:43:15.910Z,84.10
2018-12-11T01:44:15.924Z,83.53
2018-12-11T01:45:15.946Z,84.10
2018-12-11T01:46:15.960Z,83.87
2018-12-11T01:47:15.959Z,84.34
2018-12-11T01:48:15.973Z,84.39
2018-12-11T01:49:16.001Z,83.78
2018-12-11T01:50:16.050Z,84.72
2018-12-11T01:51:16.020Z,83.97
2018-12-11T01:52:16.027Z,83.53
2018-12-11T01:53:16.049Z,83.11
2018-12-11T01:54:16.056Z,83.78
2018-12-11T01:55:16.077Z,84.53
2018-12-11T01:56:16.108Z,84.06
2018-12-11T01:57:16.111Z,83.44
2018-12-11T01:58:16.113Z,83.25
2018-12-11T01:59:16.131Z,83.44
2018-12-11T02:01:16.161Z,83.59
2018-12-11T02:02:16.174Z,84.34
2018-12-11T02:03:16.196Z,83.87
2018-12-11T02:04:16.205Z,84.25
2018-12-11T02:05:16.217Z,83.78
2018-12-11T02:06:16.225Z,83.30
2018-12-11T02:07:16.345Z,83.87
2018-12-11T02:08:16.254Z,83.87
2018-12-11T02:09:16.272Z,84.53
2018-12-11T02:10:16.281Z,83.72
2018-12-11T02:11:16.312Z,82.87
2018-12-11T02:12:16.309Z,82.82
2018-12-11T02:13:16.328Z,83.34
2018-12-11T02:14:16.341Z,83.87
2018-12-11T02:15:16.354Z,83.87
2018-12-11T02:16:16.371Z,83.68
2018-12-11T02:17:16.399Z,83.30
2018-12-11T02:18:18.426Z,83.30
2018-12-11T02:19:16.427Z,83.59
2018-12-11T02:21:16.444Z,84.06
2018-12-11T02:23:16.461Z,82.68
2018-12-11T02:24:16.486Z,82.39
2018-12-11T02:25:16.499Z,83.20
2018-12-11T02:26:16.517Z,83.78
2018-12-11T02:27:16.520Z,82.77
2018-12-11T02:28:16.536Z,82.07
2018-12-11T02:29:16.550Z,82.39
2018-12-11T02:30:16.566Z,82.10
2018-12-11T02:31:16.595Z,81.87
2018-12-11T02:32:16.603Z,82.92
2018-12-11T02:33:16.614Z,83.11
2018-12-11T02:35:16.748Z,82.54
2018-12-11T02:36:18.651Z,83.20
2018-12-11T02:37:16.662Z,83.39
2018-12-11T02:38:16.688Z,83.01
2018-12-11T02:39:16.703Z,82.49
2018-12-11T02:40:16.707Z,82.07
2018-12-11T02:41:16.757Z,81.92
2018-12-11T02:42:16.745Z,81.68
2018-12-11T02:43:16.748Z,82.82
2018-12-11T02:44:16.771Z,82.64
2018-12-11T02:45:16.788Z,82.73
2018-12-11T02:46:16.792Z,82.73
2018-12-11T02:47:16.806Z,83.97
2018-12-11T02:48:16.820Z,83.30
2018-12-11T02:49:16.838Z,83.11
2018-12-11T02:50:16.847Z,84.63
2018-12-11T02:51:16.857Z,83.68
2018-12-11T02:52:16.911Z,82.82
2018-12-11T02:53:16.904Z,83.11
2018-12-11T02:54:16.904Z,83.39
2018-12-11T02:55:16.918Z,83.59
2018-12-11T02:56:16.929Z,83.20
2018-12-11T02:57:16.940Z,83.87
2018-12-11T02:58:16.989Z,83.68
2018-12-11T02:59:16.968Z,84.11
2018-12-11T03:00:16.985Z,85.01
2018-12-11T03:01:17.007Z,84.06
2018-12-11T03:02:17.016Z,83.20
2018-12-11T03:03:17.057Z,83.20
2018-12-11T03:04:17.066Z,83.30
2018-12-11T03:05:17.067Z,83.49
2018-12-11T03:06:17.081Z,83.11
2018-12-11T03:07:17.088Z,82.82
2018-12-11T03:08:17.100Z,82.92
2018-12-11T03:09:17.176Z,83.39
2018-12-11T03:10:17.142Z,82.16
2018-12-11T03:11:17.154Z,81.97
2018-12-11T03:12:17.149Z,82.64
2018-12-11T03:13:17.182Z,82.26
2018-12-11T03:14:17.188Z,82.92
2018-12-11T03:15:17.202Z,82.35
2018-12-11T03:16:17.279Z,82.45
2018-12-11T03:17:17.222Z,82.26
2018-12-11T03:18:17.239Z,81.97
2018-12-11T03:19:19.254Z,82.64
2018-12-11T03:20:17.263Z,83.49
2018-12-11T03:21:17.281Z,83.11
2018-12-11T03:22:17.298Z,82.82
2018-12-11T03:23:17.315Z,82.64
2018-12-11T03:24:17.336Z,82.16
2018-12-11T03:25:19.369Z,81.59
2018-12-11T03:26:17.428Z,81.25
2018-12-11T03:27:17.371Z,80.83
2018-12-11T03:28:17.424Z,81.59
2018-12-11T03:29:17.428Z,82.45
2018-12-11T03:30:17.399Z,83.01
2018-12-11T03:31:17.425Z,82.92
2018-12-11T03:32:17.436Z,82.54
2018-12-11T03:33:17.448Z,81.78
2018-12-11T03:34:17.454Z,81.30
2018-12-11T03:35:17.467Z,81.87
2018-12-11T03:36:17.481Z,81.97
2018-12-11T03:37:17.517Z,81.87
2018-12-11T03:38:17.519Z,81.78
2018-12-11T03:39:17.538Z,82.35
2018-12-11T03:41:17.552Z,83.01
2018-12-11T03:42:17.566Z,82.64
2018-12-11T03:43:17.590Z,82.64
2018-12-11T03:44:17.603Z,82.73
2018-12-11T03:45:17.617Z,83.01
2018-12-11T03:46:17.617Z,82.54
2018-12-11T03:47:19.639Z,82.82
2018-12-11T03:48:17.660Z,82.73
2018-12-11T03:49:17.665Z,82.45
2018-12-11T03:50:17.677Z,82.54
2018-12-11T03:51:17.691Z,82.54
2018-12-11T03:52:21.349Z,82.82
2018-12-11T03:53:17.739Z,83.59
2018-12-11T03:54:17.784Z,82.54
2018-12-11T03:55:17.744Z,82.16
2018-12-11T03:56:17.771Z,82.73
2018-12-11T03:57:17.786Z,82.54
2018-12-11T03:58:17.795Z,82.64
2018-12-11T03:59:17.810Z,81.87
2018-12-11T04:00:17.834Z,81.49
2018-12-11T04:01:17.825Z,81.68
2018-12-11T04:02:17.835Z,80.96
2018-12-11T04:03:17.861Z,81.40
2018-12-11T04:04:17.870Z,81.49
2018-12-11T04:05:17.888Z,82.26
2018-12-11T04:06:17.896Z,83.01
2018-12-11T04:07:17.960Z,82.07
2018-12-11T04:08:17.927Z,81.78
2018-12-11T04:09:17.988Z,80.96
2018-12-11T04:10:17.942Z,80.83
2018-12-11T04:11:17.975Z,81.68
2018-12-11T04:12:17.977Z,81.40
2018-12-11T04:13:17.993Z,82.54
2018-12-11T04:14:18.009Z,83.87
2018-12-11T04:15:18.043Z,83.39
2018-12-11T04:16:18.037Z,82.54
2018-12-11T04:17:18.045Z,82.92
2018-12-11T04:18:19.067Z,83.11
2018-12-11T04:19:18.125Z,82.73
2018-12-11T04:20:18.085Z,82.54
2018-12-11T04:21:18.095Z,82.73
2018-12-11T04:22:18.105Z,82.54
2018-12-11T04:23:18.134Z,82.45
2018-12-11T04:24:20.157Z,83.16
2018-12-11T04:25:18.150Z,83.39
2018-12-11T04:26:18.163Z,82.45
2018-12-11T04:27:18.234Z,81.59
2018-12-11T04:28:18.207Z,82.26
2018-12-11T04:29:18.210Z,82.73
2018-12-11T04:30:18.226Z,82.92
2018-12-11T04:31:18.242Z,83.83
2018-12-11T04:33:18.255Z,84.87
2018-12-11T04:34:18.282Z,85.16
2018-12-11T04:35:18.332Z,84.87
2018-12-11T04:37:18.310Z,83.59
2018-12-11T04:38:18.343Z,83.01
2018-12-11T04:39:18.408Z,82.82
2018-12-11T04:40:18.367Z,83.01
2018-12-11T04:41:18.372Z,83.01
2018-12-11T04:42:18.379Z,83.20
2018-12-11T04:43:18.438Z,83.39
2018-12-11T04:44:18.414Z,82.92
2018-12-11T04:45:18.430Z,82.54
2018-12-11T04:48:18.487Z,82.07
2018-12-11T04:49:18.476Z,82.54
2018-12-11T04:50:18.489Z,82.69
2018-12-11T04:51:18.496Z,83.39
2018-12-11T04:52:18.517Z,83.39
2018-12-11T04:53:18.533Z,83.59
2018-12-11T04:54:18.558Z,83.73
2018-12-11T04:55:18.593Z,84.11
2018-12-11T04:56:18.611Z,83.59
2018-12-11T04:57:18.578Z,84.40
2018-12-11T04:58:18.595Z,84.49
2018-12-11T04:59:18.606Z,84.06
2018-12-11T05:00:18.652Z,83.78
2018-12-11T05:01:18.637Z,83.39
2018-12-11T05:02:18.654Z,82.54
2018-12-11T05:03:18.685Z,83.01
2018-12-11T05:04:18.698Z,82.73
2018-12-11T05:05:18.743Z,82.92
2018-12-11T05:06:18.705Z,82.45
2018-12-11T05:07:18.712Z,83.16
2018-12-11T05:08:18.774Z,84.21
2018-12-11T05:09:18.771Z,83.87
2018-12-11T05:10:18.765Z,83.45
2018-12-11T05:11:18.775Z,83.20
2018-12-11T05:12:18.787Z,83.07
2018-12-11T05:13:18.824Z,83.54
2018-12-11T05:14:18.809Z,83.73
2018-12-11T05:15:18.821Z,83.11
2018-12-11T05:16:18.848Z,83.20
2018-12-11T05:17:18.863Z,82.78
2018-12-11T05:18:21.192Z,83.83
2018-12-11T05:19:18.876Z,83.39
2018-12-11T05:20:18.914Z,82.73
2018-12-11T05:21:18.901Z,82.26
2018-12-11T05:22:18.912Z,82.54
2018-12-11T05:23:18.921Z,82.97
2018-12-11T05:24:18.937Z,83.59
2018-12-11T05:25:19.021Z,82.45
2018-12-11T05:26:19.163Z,82.64
2018-12-11T05:27:18.995Z,83.83
2018-12-11T05:28:19.075Z,84.49
2018-12-11T05:29:19.014Z,84.21
2018-12-11T05:30:19.060Z,83.83
2018-12-11T05:31:19.038Z,83.83
2018-12-11T05:32:19.046Z,83.83
2018-12-11T05:33:19.073Z,83.83
2018-12-11T05:34:19.078Z,83.64
2018-12-11T05:35:19.116Z,83.64
2018-12-11T05:36:19.109Z,84.11
2018-12-11T05:37:19.144Z,83.30
2018-12-11T05:38:19.127Z,83.11
2018-12-11T05:39:19.145Z,83.26
2018-12-11T05:40:19.153Z,83.73
2018-12-11T05:41:19.167Z,83.49
2018-12-11T05:42:19.187Z,83.36
2018-12-11T05:43:19.191Z,83.39
2018-12-11T05:44:19.219Z,83.54
2018-12-11T05:45:19.344Z,83.92
2018-12-11T05:46:19.234Z,83.36
2018-12-11T05:47:19.242Z,84.01
2018-12-11T05:48:19.258Z,83.59
2018-12-11T05:49:19.286Z,83.07
2018-12-11T05:50:19.292Z,83.54
2018-12-11T05:51:19.400Z,84.59
2018-12-11T05:52:19.309Z,84.97
2018-12-11T05:53:19.331Z,83.83
2018-12-11T05:55:19.363Z,84.97
2018-12-11T05:56:19.529Z,83.92
2018-12-11T05:57:19.382Z,83.07
2018-12-11T05:58:19.470Z,83.54
2018-12-11T05:59:19.404Z,84.11
2018-12-11T06:00:19.430Z,83.20
2018-12-11T06:01:19.446Z,84.21
2018-12-11T06:02:19.453Z,84.01
2018-12-11T06:03:19.460Z,83.26
2018-12-11T06:04:19.471Z,83.54
2018-12-11T06:05:19.526Z,84.01
2018-12-11T06:06:19.506Z,83.83
2018-12-11T06:07:19.524Z,83.45
2018-12-11T06:08:19.534Z,83.64
2018-12-11T06:09:19.542Z,84.40
2018-12-11T06:10:19.559Z,84.49
2018-12-11T06:11:19.574Z,84.78
2018-12-11T06:12:19.579Z,84.78
2018-12-11T06:13:19.592Z,83.26
2018-12-11T06:14:19.601Z,83.26
2018-12-11T06:15:19.620Z,84.11
2018-12-11T06:16:19.640Z,84.87
2018-12-11T06:17:19.644Z,84.40
2018-12-11T06:18:19.651Z,84.01
2018-12-11T06:19:19.676Z,83.83
2018-12-11T06:20:19.685Z,84.11
2018-12-11T06:21:19.694Z,84.49
2018-12-11T06:22:19.705Z,84.68
2018-12-11T06:23:19.733Z,84.87
2018-12-11T06:24:19.741Z,85.35
2018-12-11T06:25:19.767Z,85.35
2018-12-11T06:26:19.773Z,84.30
2018-12-11T06:27:19.784Z,84.21
2018-12-11T06:28:19.795Z,84.01
2018-12-11T06:29:19.799Z,84.78
2018-12-11T06:30:19.836Z,84.87
2018-12-11T06:31:19.824Z,84.78
2018-12-11T06:32:19.837Z,83.16
2018-12-11T06:33:19.872Z,83.73
2018-12-11T06:34:19.860Z,83.36
2018-12-11T06:35:19.878Z,83.83
2018-12-11T06:36:19.890Z,84.01
2018-12-11T06:37:19.908Z,84.40
2018-12-11T06:38:19.918Z,84.30
2018-12-11T06:39:19.935Z,84.87
2018-12-11T06:40:19.943Z,84.21
2018-12-11T06:41:19.958Z,84.21
2018-12-11T06:42:19.962Z,83.83
2018-12-11T06:43:20.089Z,83.64
2018-12-11T06:44:19.998Z,83.92
2018-12-11T06:45:20.007Z,83.36
2018-12-11T06:46:20.027Z,83.16
2018-12-11T06:47:20.032Z,83.83
2018-12-11T06:48:20.051Z,84.01
2018-12-11T06:49:20.102Z,84.01
2018-12-11T06:50:20.088Z,84.30
2018-12-11T06:51:20.098Z,84.30
2018-12-11T06:52:20.101Z,84.30
2018-12-11T06:53:20.109Z,84.97
2018-12-11T06:54:20.121Z,85.11
2018-12-11T06:55:20.137Z,85.72
2018-12-11T06:56:20.146Z,85.16
2018-12-11T06:57:20.176Z,84.49
2018-12-11T06:58:20.176Z,84.78
2018-12-11T06:59:20.187Z,85.02
2018-12-11T07:00:20.324Z,85.53
2018-12-11T07:02:20.228Z,86.01
2018-12-11T07:03:20.244Z,86.01
2018-12-11T07:04:20.259Z,85.49
2018-12-11T07:05:20.271Z,85.72
2018-12-11T07:06:20.280Z,85.25
2018-12-11T07:07:20.307Z,85.87
2018-12-11T07:08:20.314Z,85.97
2018-12-11T07:09:20.327Z,86.01
2018-12-11T07:10:20.348Z,85.49
2018-12-11T07:11:20.356Z,86.30
2018-12-11T07:13:20.374Z,85.06
2018-12-11T07:14:20.394Z,85.35
2018-12-11T07:15:20.403Z,85.82
2018-12-11T07:16:20.419Z,85.68
2018-12-11T07:17:20.461Z,86.07
2018-12-11T07:18:25.805Z,87.11
2018-12-11T07:19:20.458Z,87.68
2018-12-11T07:20:20.466Z,86.96
2018-12-11T07:21:20.485Z,85.35
2018-12-11T07:22:20.500Z,84.97
2018-12-11T07:23:20.519Z,85.44
2018-12-11T07:24:20.534Z,85.53
2018-12-11T07:25:20.538Z,85.82
2018-12-11T07:26:20.541Z,85.97
2018-12-11T07:27:20.584Z,85.91
2018-12-11T07:28:20.570Z,85.53
2018-12-11T07:29:20.581Z,85.87
2018-12-11T07:30:20.602Z,86.39
2018-12-11T07:31:20.619Z,85.82
2018-12-11T07:32:20.633Z,85.25
2018-12-11T07:33:20.669Z,85.44
2018-12-11T07:34:20.663Z,85.06
2018-12-11T07:35:20.667Z,85.16
2018-12-11T07:36:20.679Z,84.87
2018-12-11T07:37:20.690Z,84.68
2018-12-11T07:39:20.717Z,84.87
2018-12-11T07:40:20.741Z,85.25
2018-12-11T07:41:20.751Z,85.35
2018-12-11T07:42:20.759Z,85.63
2018-12-11T07:43:20.770Z,85.63
2018-12-11T07:44:20.779Z,86.01
2018-12-11T07:45:20.804Z,85.82
2018-12-11T07:46:20.813Z,86.11
2018-12-11T07:47:20.827Z,86.49
2018-12-11T07:48:20.856Z,86.58
2018-12-11T07:49:20.850Z,86.20
2018-12-11T07:50:20.883Z,86.58
2018-12-11T07:51:20.923Z,86.77
2018-12-11T07:52:20.889Z,87.30
2018-12-11T07:53:20.907Z,87.39
2018-12-11T07:54:20.921Z,87.11
2018-12-11T07:55:20.937Z,87.05
2018-12-11T07:56:20.956Z,86.11
2018-12-11T07:57:20.987Z,86.11
2018-12-11T07:58:20.990Z,86.01
2018-12-11T07:59:21.002Z,85.82
2018-12-11T08:00:21.004Z,84.78
2018-12-11T08:01:21.008Z,86.11
2018-12-11T08:02:21.029Z,85.11
2018-12-11T08:03:21.042Z,84.11
2018-12-11T08:04:21.052Z,85.06
2018-12-11T08:05:21.078Z,84.68
2018-12-11T08:06:21.083Z,84.21
2018-12-11T08:07:21.090Z,84.01
2018-12-11T08:08:21.100Z,84.30
2018-12-11T08:09:21.123Z,84.30
2018-12-11T08:10:21.143Z,84.30
2018-12-11T08:11:21.152Z,84.53
2018-12-11T08:12:21.163Z,84.30
2018-12-11T08:13:21.182Z,84.21
2018-12-11T08:14:21.268Z,85.53
2018-12-11T08:15:21.259Z,85.35
2018-12-11T08:16:21.242Z,85.53
2018-12-11T08:17:21.359Z,84.68
2018-12-11T08:18:21.273Z,84.21
2018-12-11T08:19:21.325Z,84.78
2018-12-11T08:20:21.302Z,85.53
2018-12-11T08:21:21.415Z,85.35
2018-12-11T08:22:21.326Z,84.59
2018-12-11T08:23:21.297Z,84.34
2018-12-11T08:24:21.317Z,83.78
2018-12-11T08:25:21.352Z,83.87
2018-12-11T08:26:21.350Z,83.78
2018-12-11T08:27:21.346Z,82.92
2018-12-11T08:28:21.365Z,83.11
2018-12-11T08:29:21.390Z,83.83
2018-12-11T08:30:21.395Z,83.87
2018-12-11T08:31:21.412Z,83.59
2018-12-11T08:32:21.450Z,83.01
2018-12-11T08:33:21.459Z,83.30
2018-12-11T08:34:21.451Z,83.01
2018-12-11T08:35:21.457Z,83.01
2018-12-11T08:36:21.527Z,82.54
2018-12-11T08:37:21.481Z,82.73
2018-12-11T08:38:21.520Z,82.78
2018-12-11T08:39:21.515Z,83.07
2018-12-11T08:40:21.527Z,83.92
2018-12-11T08:41:21.546Z,83.64
2018-12-11T08:42:21.558Z,83.83
2018-12-11T08:43:21.568Z,83.07
2018-12-11T08:44:21.585Z,83.83
2018-12-11T08:45:21.599Z,83.83
2018-12-11T08:46:22.240Z,83.20
2018-12-11T08:47:21.668Z,83.73
2018-12-11T08:48:21.635Z,84.01
2018-12-11T08:49:21.648Z,83.83
2018-12-11T08:50:21.659Z,84.87
2018-12-11T08:51:21.681Z,84.44
2018-12-11T08:52:21.690Z,83.59
2018-12-11T08:53:21.716Z,82.45
2018-12-11T08:54:21.713Z,81.49
2018-12-11T08:55:21.732Z,81.59
2018-12-11T08:56:21.745Z,81.49
2018-12-11T08:57:21.751Z,81.68
2018-12-11T08:58:21.772Z,81.87
2018-12-11T08:59:21.786Z,82.92
2018-12-11T09:00:21.796Z,84.21
2018-12-11T09:02:21.821Z,83.39
2018-12-11T09:03:21.836Z,82.82
2018-12-11T09:04:21.935Z,82.82
2018-12-11T09:05:21.862Z,82.45
2018-12-11T09:06:21.873Z,83.20
2018-12-11T09:07:21.908Z,83.11
2018-12-11T09:08:21.899Z,83.01
2018-12-11T09:09:21.918Z,82.82
2018-12-11T09:10:21.938Z,82.26
2018-12-11T09:11:21.942Z,82.54
2018-12-11T09:12:21.957Z,82.10
2018-12-11T09:14:21.989Z,80.77
2018-12-11T09:15:21.997Z,80.93
2018-12-11T09:16:22.011Z,81.78
2018-12-11T09:17:22.030Z,81.59
2018-12-11T09:18:22.036Z,81.40
2018-12-11T09:19:22.065Z,81.87
2018-12-11T09:20:22.066Z,81.97
2018-12-11T09:21:22.117Z,81.59
2018-12-11T09:22:22.105Z,82.07
2018-12-11T09:23:22.116Z,82.64
2018-12-11T09:24:22.117Z,83.01
2018-12-11T09:25:22.150Z,82.26
2018-12-11T09:26:22.147Z,82.82
2018-12-11T09:27:22.162Z,82.73
2018-12-11T09:28:22.174Z,83.59
2018-12-11T09:29:22.188Z,83.87
2018-12-11T09:30:22.199Z,83.20
2018-12-11T09:31:22.217Z,82.82
2018-12-11T09:32:22.234Z,82.07
2018-12-11T09:33:22.268Z,81.21
2018-12-11T09:34:22.271Z,81.21
2018-12-11T09:35:22.281Z,81.06
2018-12-11T09:36:22.290Z,80.93
2018-12-11T09:37:22.296Z,81.02
2018-12-11T09:38:22.311Z,81.87
2018-12-11T09:39:22.336Z,80.83
2018-12-11T09:40:24.655Z,81.40
2018-12-11T09:41:22.363Z,81.40
2018-12-11T09:42:27.775Z,81.21
2018-12-11T09:43:22.384Z,80.77
2018-12-11T09:44:22.401Z,80.40
2018-12-11T09:45:22.420Z,80.30
2018-12-11T09:46:22.425Z,79.73
2018-12-11T09:47:22.436Z,79.54
2018-12-11T09:48:22.456Z,79.54
2018-12-11T09:49:22.607Z,79.92
2018-12-11T09:50:22.485Z,79.83
2018-12-11T09:51:22.490Z,79.63
2018-12-11T09:52:22.515Z,79.44
2018-12-11T09:53:22.519Z,78.88
2018-12-11T09:54:22.535Z,79.54
2018-12-11T09:55:22.577Z,79.20
2018-12-11T09:56:22.626Z,78.25
2018-12-11T09:58:22.604Z,80.11
2018-12-11T09:59:23.574Z,81.63
2018-12-11T10:00:27.239Z,81.68
2018-12-11T10:01:22.632Z,81.59
2018-12-11T10:02:22.655Z,82.45
2018-12-11T10:03:22.660Z,83.30
2018-12-11T10:04:22.675Z,82.35
2018-12-11T10:05:22.728Z,81.78
2018-12-11T10:06:22.761Z,81.87
2018-12-11T10:07:22.724Z,81.97
2018-12-11T10:08:22.739Z,83.01
2018-12-11T10:09:22.750Z,82.64
2018-12-11T10:10:22.769Z,82.16
2018-12-11T10:11:22.785Z,81.59
2018-12-11T10:13:22.807Z,81.59
2018-12-11T10:14:22.815Z,82.54
2018-12-11T10:15:22.825Z,83.59
2018-12-11T10:16:22.861Z,83.49
2018-12-11T10:17:22.864Z,83.68
2018-12-11T10:18:22.875Z,83.97
2018-12-11T10:20:22.971Z,83.20
2018-12-11T10:21:22.922Z,83.78
2018-12-11T10:22:22.924Z,84.06
2018-12-11T10:23:22.973Z,85.06
2018-12-11T10:24:22.963Z,85.01
2018-12-11T10:25:22.976Z,84.53
2018-12-11T10:26:22.990Z,84.16
2018-12-11T10:27:23.004Z,83.92
2018-12-11T10:28:23.004Z,84.91
2018-12-11T10:29:23.022Z,84.25
2018-12-11T10:30:23.043Z,83.87
2018-12-11T10:31:23.051Z,83.39
2018-12-11T10:32:23.060Z,83.39
2018-12-11T10:33:23.102Z,82.64
2018-12-11T10:35:23.106Z,84.06
2018-12-11T10:36:23.124Z,84.06
2018-12-11T10:37:23.130Z,83.87
2018-12-11T10:38:23.143Z,84.34
2018-12-11T10:39:23.177Z,84.63
2018-12-11T10:40:23.197Z,84.63
2018-12-11T10:41:23.203Z,84.91
2018-12-11T10:42:23.202Z,85.30
2018-12-11T10:43:23.219Z,86.11
2018-12-11T10:44:23.223Z,86.30
2018-12-11T10:45:23.245Z,86.05
2018-12-11T10:46:23.257Z,85.16
2018-12-11T10:47:23.277Z,85.72
2018-12-11T10:49:23.295Z,85.53
2018-12-11T10:50:23.311Z,85.39
2018-12-11T10:51:23.466Z,84.44
2018-12-11T10:52:23.335Z,83.59
2018-12-11T10:53:23.349Z,83.78
2018-12-11T10:54:23.406Z,84.44
2018-12-11T10:55:23.408Z,84.87
2018-12-11T10:56:23.402Z,84.78
2018-12-11T10:57:23.407Z,84.34
2018-12-11T10:58:23.423Z,83.78
2018-12-11T10:59:23.434Z,83.49
2018-12-11T11:00:23.444Z,83.83
2018-12-11T11:01:23.482Z,84.68
2018-12-11T11:02:23.476Z,85.06
2018-12-11T11:03:23.481Z,85.35
2018-12-11T11:04:23.502Z,84.78
2018-12-11T11:05:23.520Z,84.68
2018-12-11T11:06:23.549Z,83.68
2018-12-11T11:07:23.538Z,84.11
2018-12-11T11:08:23.581Z,84.68
2018-12-11T11:09:23.587Z,84.87
2018-12-11T11:10:23.582Z,85.35
2018-12-11T11:11:23.611Z,85.53
2018-12-11T11:12:23.609Z,85.35
2018-12-11T11:13:23.638Z,84.44
2018-12-11T11:14:25.165Z,84.97
2018-12-11T11:15:23.651Z,84.72
2018-12-11T11:16:23.662Z,84.30
2018-12-11T11:17:23.678Z,84.78
2018-12-11T11:18:23.697Z,84.44
2018-12-11T11:19:23.712Z,83.68
2018-12-11T11:20:23.720Z,84.25
2018-12-11T11:21:23.769Z,84.25
2018-12-11T11:22:23.770Z,85.16
2018-12-11T11:23:23.769Z,85.72
2018-12-11T11:24:23.813Z,85.72
2018-12-11T11:25:23.856Z,84.78
2018-12-11T11:26:23.804Z,85.16
2018-12-11T11:27:23.820Z,84.72
2018-12-11T11:28:23.834Z,84.16
2018-12-11T11:29:23.845Z,83.68
2018-12-11T11:30:23.852Z,83.87
2018-12-11T11:31:23.870Z,83.97
2018-12-11T11:32:23.881Z,83.87
2018-12-11T11:33:23.913Z,83.59
2018-12-11T11:34:23.914Z,83.78
2018-12-11T11:35:23.923Z,83.59
2018-12-11T11:36:23.953Z,84.82
2018-12-11T11:37:23.951Z,84.63
2018-12-11T11:38:23.967Z,84.63
2018-12-11T11:39:23.980Z,84.78
2018-12-11T11:40:24.013Z,85.58
2018-12-11T11:41:24.004Z,86.01
2018-12-11T11:42:24.029Z,85.30
2018-12-11T11:43:24.026Z,85.20
2018-12-11T11:44:24.038Z,85.35
2018-12-11T11:45:24.053Z,85.25
2018-12-11T11:46:24.077Z,85.25
2018-12-11T11:47:24.097Z,85.39
2018-12-11T11:48:24.095Z,85.77
2018-12-11T11:49:24.111Z,84.72
2018-12-11T11:50:24.131Z,84.44
2018-12-11T11:51:24.137Z,84.72
2018-12-11T11:52:24.198Z,85.11
2018-12-11T11:53:24.270Z,84.97
2018-12-11T11:54:24.201Z,85.82
2018-12-11T11:55:24.188Z,85.35
2018-12-11T11:56:24.207Z,85.86
2018-12-11T11:57:29.585Z,84.53
2018-12-11T11:58:24.233Z,84.44
2018-12-11T11:59:24.256Z,84.91
2018-12-11T12:00:24.263Z,85.11
2018-12-11T12:01:24.278Z,84.91
2018-12-11T12:02:24.308Z,84.72
2018-12-11T12:03:24.303Z,84.78
2018-12-11T12:04:24.316Z,84.40
2018-12-11T12:05:24.326Z,83.20
2018-12-11T12:06:24.339Z,82.45
2018-12-11T12:07:24.374Z,82.73
2018-12-11T12:08:24.390Z,83.87
2018-12-11T12:09:24.387Z,83.97
2018-12-11T12:10:24.409Z,84.97
2018-12-11T12:11:24.407Z,84.49
2018-12-11T12:12:24.431Z,85.16
2018-12-11T12:13:24.437Z,84.87
2018-12-11T12:14:24.463Z,84.21
2018-12-11T12:15:24.480Z,84.06
2018-12-11T12:17:24.498Z,84.21
2018-12-11T12:18:24.511Z,84.06
2018-12-11T12:19:24.527Z,84.01
2018-12-11T12:20:24.528Z,84.44
2018-12-11T12:21:24.547Z,84.01
2018-12-11T12:22:24.560Z,84.11
2018-12-11T12:23:24.672Z,84.59
2018-12-11T12:24:24.590Z,84.68
2018-12-11T12:25:24.599Z,84.63
2018-12-11T12:26:24.626Z,84.78
2018-12-11T12:27:24.693Z,83.49
2018-12-11T12:28:24.642Z,83.01
2018-12-11T12:29:24.657Z,82.92
2018-12-11T12:30:24.679Z,82.54
2018-12-11T12:31:24.685Z,83.39
2018-12-11T12:32:24.703Z,83.39
2018-12-11T12:33:24.712Z,83.68
2018-12-11T12:34:24.724Z,84.16
2018-12-11T12:35:24.747Z,82.45
2018-12-11T12:36:24.749Z,82.07
2018-12-11T12:37:24.772Z,82.97
2018-12-11T12:38:24.832Z,83.78
2018-12-11T12:39:24.804Z,83.01
2018-12-11T12:40:24.804Z,81.82
2018-12-11T12:41:24.825Z,81.40
2018-12-11T12:42:24.833Z,83.11
2018-12-11T12:43:24.842Z,83.59
2018-12-11T12:44:24.965Z,83.78
2018-12-11T12:45:24.874Z,83.59
2018-12-11T12:46:24.889Z,83.11
2018-12-11T12:48:24.920Z,82.92
2018-12-11T12:49:24.940Z,84.21
2018-12-11T12:50:24.942Z,84.49
2018-12-11T12:51:24.957Z,84.34
2018-12-11T12:52:24.976Z,84.34
2018-12-11T12:53:24.977Z,84.34
2018-12-11T12:54:24.994Z,83.59
2018-12-11T12:55:25.092Z,84.16
2018-12-11T12:56:25.016Z,84.06
2018-12-11T12:57:25.047Z,83.87
2018-12-11T12:58:25.055Z,84.25
2018-12-11T12:59:25.064Z,84.06
2018-12-11T13:00:25.071Z,83.49
2018-12-11T13:01:25.087Z,83.11
2018-12-11T13:02:25.102Z,82.92
2018-12-11T13:03:25.113Z,83.97
2018-12-11T13:04:25.144Z,83.49
2018-12-11T13:05:25.144Z,82.64
2018-12-11T13:06:25.177Z,83.78
2018-12-11T13:07:25.191Z,83.87
2018-12-11T13:08:25.202Z,83.87
2018-12-11T13:09:25.189Z,83.49
2018-12-11T13:10:25.202Z,83.97
2018-12-11T13:11:25.297Z,84.34
2018-12-11T13:12:25.326Z,83.30
2018-12-11T13:13:25.257Z,83.01
2018-12-11T13:14:25.271Z,82.92
2018-12-11T13:15:25.268Z,83.01
2018-12-11T13:16:25.278Z,82.64
2018-12-11T13:17:25.297Z,82.73
2018-12-11T13:18:25.311Z,83.68
2018-12-11T13:19:25.402Z,84.16
2018-12-11T13:20:25.357Z,83.97